sensor_id;sensor_type;location;lat;lon;timestamp;P1;durP1;ratioP1;P2;durP2;ratioP2
59189;SDS011;50749;51.636;4.948;2022-10-23T00:01:30;3.60;;;2.30;;
59189;SDS011;50749;51.636;4.948;2022-10-23T00:03:58;3.50;;;2.00;;
59189;SDS011;50749;51.636;4.948;2022-10-23T00:06:27;3.95;;;2.00;;
59189;SDS011;50749;51.636;4.948;2022-10-23T00:08:54;3.80;;;2.00;;
59189;SDS011;50749;51.636;4.948;2022-10-23T00:11:22;5.07;;;1.95;;
59189;SDS011;50749;51.636;4.948;2022-10-23T00:13:49;4.63;;;2.30;;
59189;SDS011;50749;51.636;4.948;2022-10-23T00:16:16;7.15;;;2.38;;
59189;SDS011;50749;51.636;4.948;2022-10-23T00:18:41;6.18;;;2.58;;
59189;SDS011;50749;51.636;4.948;2022-10-23T00:21:09;4.38;;;2.13;;
59189;SDS011;50749;51.636;4.948;2022-10-23T00:23:35;4.35;;;2.20;;
59189;SDS011;50749;51.636;4.948;2022-10-23T00:26:02;4.57;;;1.98;;
59189;SDS011;50749;51.636;4.948;2022-10-23T00:28:28;3.65;;;1.92;;
59189;SDS011;50749;51.636;4.948;2022-10-23T00:30:55;4.25;;;2.13;;
59189;SDS011;50749;51.636;4.948;2022-10-23T00:33:20;3.78;;;1.75;;
59189;SDS011;50749;51.636;4.948;2022-10-23T00:35:46;5.75;;;2.30;;
59189;SDS011;50749;51.636;4.948;2022-10-23T00:38:12;5.45;;;2.00;;
59189;SDS011;50749;51.636;4.948;2022-10-23T00:40:38;5.45;;;2.25;;
59189;SDS011;50749;51.636;4.948;2022-10-23T00:43:05;4.65;;;2.20;;
59189;SDS011;50749;51.636;4.948;2022-10-23T00:45:35;4.40;;;1.90;;
59189;SDS011;50749;51.636;4.948;2022-10-23T00:48:02;3.30;;;1.90;;
59189;SDS011;50749;51.636;4.948;2022-10-23T00:50:29;3.22;;;1.77;;
59189;SDS011;50749;51.636;4.948;2022-10-23T00:52:58;5.22;;;2.08;;
59189;SDS011;50749;51.636;4.948;2022-10-23T00:55:26;2.95;;;1.92;;
59189;SDS011;50749;51.636;4.948;2022-10-23T00:57:53;4.53;;;1.92;;
59189;SDS011;50749;51.636;4.948;2022-10-23T01:00:23;6.05;;;2.33;;
59189;SDS011;50749;51.636;4.948;2022-10-23T01:03:09;6.07;;;1.90;;
59189;SDS011;50749;51.636;4.948;2022-10-23T01:05:49;4.15;;;1.98;;
59189;SDS011;50749;51.636;4.948;2022-10-23T01:11:01;5.07;;;2.40;;
59189;SDS011;50749;51.636;4.948;2022-10-23T01:13:36;6.03;;;2.45;;
59189;SDS011;50749;51.636;4.948;2022-10-23T01:19:15;5.45;;;2.03;;
59189;SDS011;50749;51.636;4.948;2022-10-23T01:21:54;3.95;;;2.30;;
59189;SDS011;50749;51.636;4.948;2022-10-23T01:27:23;2.83;;;1.80;;
59189;SDS011;50749;51.636;4.948;2022-10-23T01:30:09;5.35;;;2.00;;
59189;SDS011;50749;51.636;4.948;2022-10-23T01:35:15;5.47;;;2.08;;
59189;SDS011;50749;51.636;4.948;2022-10-23T01:37:57;5.97;;;1.98;;
59189;SDS011;50749;51.636;4.948;2022-10-23T01:40:33;4.18;;;2.05;;
59189;SDS011;50749;51.636;4.948;2022-10-23T01:43:12;3.72;;;2.13;;
59189;SDS011;50749;51.636;4.948;2022-10-23T01:45:43;5.43;;;2.10;;
59189;SDS011;50749;51.636;4.948;2022-10-23T01:48:12;6.75;;;2.00;;
59189;SDS011;50749;51.636;4.948;2022-10-23T01:50:42;4.65;;;2.15;;
59189;SDS011;50749;51.636;4.948;2022-10-23T01:53:09;5.40;;;2.17;;
59189;SDS011;50749;51.636;4.948;2022-10-23T01:55:35;3.88;;;1.90;;
59189;SDS011;50749;51.636;4.948;2022-10-23T01:58:03;6.13;;;1.90;;
59189;SDS011;50749;51.636;4.948;2022-10-23T02:00:33;4.68;;;2.15;;
59189;SDS011;50749;51.636;4.948;2022-10-23T02:03:00;3.88;;;1.85;;
59189;SDS011;50749;51.636;4.948;2022-10-23T02:05:29;4.47;;;1.35;;
59189;SDS011;50749;51.636;4.948;2022-10-23T02:07:56;4.25;;;2.25;;
59189;SDS011;50749;51.636;4.948;2022-10-23T02:10:24;3.20;;;1.92;;
59189;SDS011;50749;51.636;4.948;2022-10-23T02:15:40;3.75;;;1.88;;
59189;SDS011;50749;51.636;4.948;2022-10-23T02:21:15;4.00;;;1.80;;
59189;SDS011;50749;51.636;4.948;2022-10-23T02:26:34;3.63;;;1.95;;
59189;SDS011;50749;51.636;4.948;2022-10-23T02:29:06;4.53;;;1.90;;
59189;SDS011;50749;51.636;4.948;2022-10-23T02:31:36;3.83;;;1.70;;
59189;SDS011;50749;51.636;4.948;2022-10-23T02:34:03;4.38;;;2.03;;
59189;SDS011;50749;51.636;4.948;2022-10-23T02:36:29;3.92;;;1.92;;
59189;SDS011;50749;51.636;4.948;2022-10-23T02:38:54;3.22;;;1.45;;
59189;SDS011;50749;51.636;4.948;2022-10-23T02:46:52;4.55;;;1.80;;
59189;SDS011;50749;51.636;4.948;2022-10-23T02:49:50;2.85;;;1.80;;
59189;SDS011;50749;51.636;4.948;2022-10-23T02:52:39;5.28;;;1.98;;
59189;SDS011;50749;51.636;4.948;2022-10-23T02:55:30;2.70;;;1.85;;
59189;SDS011;50749;51.636;4.948;2022-10-23T03:01:18;3.72;;;1.80;;
59189;SDS011;50749;51.636;4.948;2022-10-23T03:03:52;6.05;;;2.00;;
59189;SDS011;50749;51.636;4.948;2022-10-23T03:06:21;4.88;;;2.03;;
59189;SDS011;50749;51.636;4.948;2022-10-23T03:08:52;3.63;;;1.95;;
59189;SDS011;50749;51.636;4.948;2022-10-23T03:11:22;7.07;;;1.90;;
59189;SDS011;50749;51.636;4.948;2022-10-23T03:13:47;3.78;;;1.73;;
59189;SDS011;50749;51.636;4.948;2022-10-23T03:16:13;4.20;;;1.90;;
59189;SDS011;50749;51.636;4.948;2022-10-23T03:18:39;3.30;;;1.75;;
59189;SDS011;50749;51.636;4.948;2022-10-23T03:21:05;2.95;;;2.13;;
59189;SDS011;50749;51.636;4.948;2022-10-23T03:23:31;3.55;;;1.67;;
59189;SDS011;50749;51.636;4.948;2022-10-23T03:25:56;2.65;;;1.83;;
59189;SDS011;50749;51.636;4.948;2022-10-23T03:28:22;5.43;;;2.00;;
59189;SDS011;50749;51.636;4.948;2022-10-23T03:30:48;4.45;;;1.88;;
59189;SDS011;50749;51.636;4.948;2022-10-23T03:33:14;3.47;;;1.92;;
59189;SDS011;50749;51.636;4.948;2022-10-23T03:35:40;5.30;;;2.72;;
59189;SDS011;50749;51.636;4.948;2022-10-23T03:38:05;3.63;;;1.80;;
59189;SDS011;50749;51.636;4.948;2022-10-23T03:40:31;6.38;;;1.77;;
59189;SDS011;50749;51.636;4.948;2022-10-23T03:42:57;10.15;;;1.92;;
59189;SDS011;50749;51.636;4.948;2022-10-23T03:45:23;3.22;;;1.88;;
59189;SDS011;50749;51.636;4.948;2022-10-23T03:47:49;4.95;;;1.90;;
59189;SDS011;50749;51.636;4.948;2022-10-23T03:50:16;4.35;;;1.90;;
59189;SDS011;50749;51.636;4.948;2022-10-23T03:52:43;5.40;;;1.80;;
59189;SDS011;50749;51.636;4.948;2022-10-23T03:55:09;2.92;;;1.67;;
59189;SDS011;50749;51.636;4.948;2022-10-23T03:57:35;3.65;;;1.80;;
59189;SDS011;50749;51.636;4.948;2022-10-23T04:00:03;4.95;;;1.98;;
59189;SDS011;50749;51.636;4.948;2022-10-23T04:02:29;4.00;;;1.75;;
59189;SDS011;50749;51.636;4.948;2022-10-23T04:04:55;3.08;;;1.73;;
59189;SDS011;50749;51.636;4.948;2022-10-23T04:07:21;6.40;;;1.73;;
59189;SDS011;50749;51.636;4.948;2022-10-23T04:09:47;3.58;;;1.65;;
59189;SDS011;50749;51.636;4.948;2022-10-23T04:12:13;3.90;;;1.90;;
59189;SDS011;50749;51.636;4.948;2022-10-23T04:14:39;6.00;;;2.10;;
59189;SDS011;50749;51.636;4.948;2022-10-23T04:17:04;4.10;;;1.73;;
59189;SDS011;50749;51.636;4.948;2022-10-23T04:19:30;4.07;;;1.52;;
59189;SDS011;50749;51.636;4.948;2022-10-23T04:21:56;5.70;;;1.58;;
59189;SDS011;50749;51.636;4.948;2022-10-23T04:24:23;3.03;;;1.77;;
59189;SDS011;50749;51.636;4.948;2022-10-23T04:26:49;4.50;;;2.05;;
59189;SDS011;50749;51.636;4.948;2022-10-23T04:29:15;5.95;;;1.65;;
59189;SDS011;50749;51.636;4.948;2022-10-23T04:31:41;3.50;;;1.65;;
59189;SDS011;50749;51.636;4.948;2022-10-23T04:34:07;5.20;;;1.83;;
59189;SDS011;50749;51.636;4.948;2022-10-23T04:36:32;3.83;;;1.80;;
59189;SDS011;50749;51.636;4.948;2022-10-23T04:38:58;5.15;;;2.00;;
59189;SDS011;50749;51.636;4.948;2022-10-23T04:41:24;5.13;;;1.63;;
59189;SDS011;50749;51.636;4.948;2022-10-23T04:43:50;4.88;;;1.98;;
59189;SDS011;50749;51.636;4.948;2022-10-23T04:46:16;3.95;;;1.77;;
59189;SDS011;50749;51.636;4.948;2022-10-23T04:48:42;5.95;;;2.25;;
59189;SDS011;50749;51.636;4.948;2022-10-23T04:51:08;4.32;;;1.40;;
59189;SDS011;50749;51.636;4.948;2022-10-23T04:53:34;4.40;;;1.80;;
59189;SDS011;50749;51.636;4.948;2022-10-23T04:56:00;3.90;;;1.40;;
59189;SDS011;50749;51.636;4.948;2022-10-23T04:58:26;4.43;;;1.50;;
59189;SDS011;50749;51.636;4.948;2022-10-23T05:00:53;2.95;;;1.30;;
59189;SDS011;50749;51.636;4.948;2022-10-23T05:03:19;4.28;;;1.98;;
59189;SDS011;50749;51.636;4.948;2022-10-23T05:05:46;3.83;;;1.55;;
59189;SDS011;50749;51.636;4.948;2022-10-23T05:08:12;5.00;;;1.70;;
59189;SDS011;50749;51.636;4.948;2022-10-23T05:10:38;4.15;;;1.65;;
59189;SDS011;50749;51.636;4.948;2022-10-23T05:13:06;4.78;;;1.80;;
59189;SDS011;50749;51.636;4.948;2022-10-23T05:15:32;4.05;;;1.63;;
59189;SDS011;50749;51.636;4.948;2022-10-23T05:18:00;3.28;;;1.67;;
59189;SDS011;50749;51.636;4.948;2022-10-23T05:20:32;5.35;;;2.42;;
59189;SDS011;50749;51.636;4.948;2022-10-23T05:23:01;3.53;;;2.05;;
59189;SDS011;50749;51.636;4.948;2022-10-23T05:25:30;4.68;;;2.05;;
59189;SDS011;50749;51.636;4.948;2022-10-23T05:27:56;2.88;;;1.88;;
59189;SDS011;50749;51.636;4.948;2022-10-23T05:30:22;3.78;;;1.80;;
59189;SDS011;50749;51.636;4.948;2022-10-23T05:32:48;3.72;;;1.92;;
59189;SDS011;50749;51.636;4.948;2022-10-23T05:35:14;5.50;;;1.55;;
59189;SDS011;50749;51.636;4.948;2022-10-23T05:37:46;3.40;;;1.52;;
59189;SDS011;50749;51.636;4.948;2022-10-23T05:40:14;3.10;;;1.45;;
59189;SDS011;50749;51.636;4.948;2022-10-23T05:42:41;3.30;;;1.73;;
59189;SDS011;50749;51.636;4.948;2022-10-23T05:45:06;4.22;;;1.52;;
59189;SDS011;50749;51.636;4.948;2022-10-23T05:47:33;3.67;;;1.55;;
59189;SDS011;50749;51.636;4.948;2022-10-23T05:49:58;3.05;;;1.33;;
59189;SDS011;50749;51.636;4.948;2022-10-23T05:52:24;3.25;;;1.63;;
59189;SDS011;50749;51.636;4.948;2022-10-23T05:54:50;2.78;;;1.55;;
59189;SDS011;50749;51.636;4.948;2022-10-23T05:57:16;5.28;;;1.60;;
59189;SDS011;50749;51.636;4.948;2022-10-23T05:59:42;5.07;;;1.83;;
59189;SDS011;50749;51.636;4.948;2022-10-23T06:02:08;2.70;;;1.58;;
59189;SDS011;50749;51.636;4.948;2022-10-23T06:04:34;2.72;;;1.60;;
59189;SDS011;50749;51.636;4.948;2022-10-23T06:07:00;4.30;;;1.55;;
59189;SDS011;50749;51.636;4.948;2022-10-23T06:09:26;6.85;;;1.73;;
59189;SDS011;50749;51.636;4.948;2022-10-23T06:11:52;3.30;;;1.60;;
59189;SDS011;50749;51.636;4.948;2022-10-23T06:14:18;5.55;;;1.90;;
59189;SDS011;50749;51.636;4.948;2022-10-23T06:16:44;2.33;;;1.40;;
59189;SDS011;50749;51.636;4.948;2022-10-23T06:19:10;3.15;;;1.55;;
59189;SDS011;50749;51.636;4.948;2022-10-23T06:21:37;2.85;;;1.60;;
59189;SDS011;50749;51.636;4.948;2022-10-23T06:24:03;3.92;;;1.55;;
59189;SDS011;50749;51.636;4.948;2022-10-23T06:26:30;3.00;;;1.50;;
59189;SDS011;50749;51.636;4.948;2022-10-23T06:28:55;3.40;;;1.55;;
59189;SDS011;50749;51.636;4.948;2022-10-23T06:31:21;2.55;;;1.20;;
59189;SDS011;50749;51.636;4.948;2022-10-23T06:33:52;5.15;;;1.33;;
59189;SDS011;50749;51.636;4.948;2022-10-23T06:36:19;2.25;;;1.33;;
59189;SDS011;50749;51.636;4.948;2022-10-23T06:38:45;1.60;;;1.25;;
59189;SDS011;50749;51.636;4.948;2022-10-23T06:41:12;4.60;;;1.58;;
59189;SDS011;50749;51.636;4.948;2022-10-23T06:43:40;6.07;;;1.35;;
59189;SDS011;50749;51.636;4.948;2022-10-23T06:46:06;3.10;;;1.52;;
59189;SDS011;50749;51.636;4.948;2022-10-23T06:48:32;2.75;;;1.70;;
59189;SDS011;50749;51.636;4.948;2022-10-23T06:50:58;3.40;;;1.45;;
59189;SDS011;50749;51.636;4.948;2022-10-23T06:53:28;5.20;;;1.40;;
59189;SDS011;50749;51.636;4.948;2022-10-23T06:55:58;2.65;;;1.30;;
59189;SDS011;50749;51.636;4.948;2022-10-23T06:58:24;2.72;;;1.40;;
59189;SDS011;50749;51.636;4.948;2022-10-23T07:00:50;3.28;;;1.55;;
59189;SDS011;50749;51.636;4.948;2022-10-23T07:03:16;2.90;;;1.23;;
59189;SDS011;50749;51.636;4.948;2022-10-23T07:05:42;2.05;;;1.20;;
59189;SDS011;50749;51.636;4.948;2022-10-23T07:08:11;6.20;;;1.85;;
59189;SDS011;50749;51.636;4.948;2022-10-23T07:10:38;3.17;;;1.70;;
59189;SDS011;50749;51.636;4.948;2022-10-23T07:13:10;2.80;;;1.42;;
59189;SDS011;50749;51.636;4.948;2022-10-23T07:15:37;2.53;;;1.30;;
59189;SDS011;50749;51.636;4.948;2022-10-23T07:18:04;2.65;;;1.13;;
59189;SDS011;50749;51.636;4.948;2022-10-23T07:20:30;3.42;;;1.48;;
59189;SDS011;50749;51.636;4.948;2022-10-23T07:22:56;2.20;;;1.42;;
59189;SDS011;50749;51.636;4.948;2022-10-23T07:25:23;2.78;;;1.10;;
59189;SDS011;50749;51.636;4.948;2022-10-23T07:27:50;2.38;;;1.35;;
59189;SDS011;50749;51.636;4.948;2022-10-23T07:30:16;2.85;;;1.42;;
59189;SDS011;50749;51.636;4.948;2022-10-23T07:32:42;4.10;;;1.50;;
59189;SDS011;50749;51.636;4.948;2022-10-23T07:35:10;4.35;;;1.48;;
59189;SDS011;50749;51.636;4.948;2022-10-23T07:37:36;3.20;;;1.45;;
59189;SDS011;50749;51.636;4.948;2022-10-23T07:40:05;2.70;;;1.30;;
59189;SDS011;50749;51.636;4.948;2022-10-23T07:42:32;4.47;;;1.73;;
59189;SDS011;50749;51.636;4.948;2022-10-23T07:44:58;3.35;;;1.73;;
59189;SDS011;50749;51.636;4.948;2022-10-23T07:47:24;2.95;;;1.38;;
59189;SDS011;50749;51.636;4.948;2022-10-23T07:49:50;2.78;;;1.60;;
59189;SDS011;50749;51.636;4.948;2022-10-23T07:52:15;3.65;;;1.42;;
59189;SDS011;50749;51.636;4.948;2022-10-23T07:54:41;3.45;;;1.38;;
59189;SDS011;50749;51.636;4.948;2022-10-23T07:57:08;3.90;;;1.55;;
59189;SDS011;50749;51.636;4.948;2022-10-23T07:59:36;4.55;;;1.27;;
59189;SDS011;50749;51.636;4.948;2022-10-23T08:02:02;3.80;;;1.80;;
59189;SDS011;50749;51.636;4.948;2022-10-23T08:04:28;3.28;;;1.52;;
59189;SDS011;50749;51.636;4.948;2022-10-23T08:06:53;5.13;;;1.70;;
59189;SDS011;50749;51.636;4.948;2022-10-23T08:09:21;3.83;;;1.60;;
59189;SDS011;50749;51.636;4.948;2022-10-23T08:11:47;4.90;;;1.35;;
59189;SDS011;50749;51.636;4.948;2022-10-23T08:14:12;3.00;;;1.30;;
59189;SDS011;50749;51.636;4.948;2022-10-23T08:16:38;2.33;;;1.42;;
59189;SDS011;50749;51.636;4.948;2022-10-23T08:19:05;2.55;;;1.40;;
59189;SDS011;50749;51.636;4.948;2022-10-23T08:21:32;3.17;;;1.50;;
59189;SDS011;50749;51.636;4.948;2022-10-23T08:23:58;2.28;;;1.27;;
59189;SDS011;50749;51.636;4.948;2022-10-23T08:26:25;3.65;;;1.60;;
59189;SDS011;50749;51.636;4.948;2022-10-23T08:28:54;2.30;;;1.30;;
59189;SDS011;50749;51.636;4.948;2022-10-23T08:31:20;2.22;;;1.23;;
59189;SDS011;50749;51.636;4.948;2022-10-23T08:33:47;9.00;;;1.35;;
59189;SDS011;50749;51.636;4.948;2022-10-23T08:36:16;4.80;;;1.10;;
59189;SDS011;50749;51.636;4.948;2022-10-23T08:38:44;2.10;;;1.27;;
59189;SDS011;50749;51.636;4.948;2022-10-23T08:41:17;3.05;;;1.35;;
59189;SDS011;50749;51.636;4.948;2022-10-23T08:46:49;4.50;;;1.52;;
59189;SDS011;50749;51.636;4.948;2022-10-23T08:55:20;4.28;;;1.20;;
59189;SDS011;50749;51.636;4.948;2022-10-23T08:57:52;5.10;;;1.60;;
59189;SDS011;50749;51.636;4.948;2022-10-23T09:00:40;3.35;;;1.23;;
59189;SDS011;50749;51.636;4.948;2022-10-23T09:03:08;9.68;;;1.83;;
59189;SDS011;50749;51.636;4.948;2022-10-23T09:16:13;2.55;;;1.33;;
59189;SDS011;50749;51.636;4.948;2022-10-23T09:18:52;4.13;;;1.40;;
59189;SDS011;50749;51.636;4.948;2022-10-23T09:21:24;5.03;;;1.42;;
59189;SDS011;50749;51.636;4.948;2022-10-23T09:23:51;5.30;;;1.95;;
59189;SDS011;50749;51.636;4.948;2022-10-23T09:26:17;4.55;;;2.30;;
59189;SDS011;50749;51.636;4.948;2022-10-23T09:28:48;6.55;;;2.05;;
59189;SDS011;50749;51.636;4.948;2022-10-23T09:31:16;4.50;;;1.88;;
59189;SDS011;50749;51.636;4.948;2022-10-23T09:33:56;4.53;;;1.80;;
59189;SDS011;50749;51.636;4.948;2022-10-23T09:36:25;5.03;;;1.92;;
59189;SDS011;50749;51.636;4.948;2022-10-23T09:38:57;5.00;;;1.90;;
59189;SDS011;50749;51.636;4.948;2022-10-23T09:41:28;7.88;;;1.60;;
59189;SDS011;50749;51.636;4.948;2022-10-23T09:46:36;3.78;;;1.90;;
59189;SDS011;50749;51.636;4.948;2022-10-23T09:49:03;5.15;;;1.90;;
59189;SDS011;50749;51.636;4.948;2022-10-23T09:51:29;5.05;;;1.92;;
59189;SDS011;50749;51.636;4.948;2022-10-23T09:53:55;5.88;;;1.98;;
59189;SDS011;50749;51.636;4.948;2022-10-23T09:56:24;4.72;;;2.00;;
59189;SDS011;50749;51.636;4.948;2022-10-23T09:58:53;4.20;;;2.17;;
59189;SDS011;50749;51.636;4.948;2022-10-23T10:01:32;4.75;;;2.72;;
59189;SDS011;50749;51.636;4.948;2022-10-23T10:04:02;5.10;;;2.03;;
59189;SDS011;50749;51.636;4.948;2022-10-23T10:06:29;3.50;;;2.20;;
59189;SDS011;50749;51.636;4.948;2022-10-23T10:08:59;4.97;;;2.28;;
59189;SDS011;50749;51.636;4.948;2022-10-23T10:14:56;6.82;;;1.80;;
59189;SDS011;50749;51.636;4.948;2022-10-23T10:28:18;10.30;;;2.83;;
59189;SDS011;50749;51.636;4.948;2022-10-23T10:31:08;3.13;;;1.90;;
59189;SDS011;50749;51.636;4.948;2022-10-23T10:45:30;3.65;;;1.98;;
59189;SDS011;50749;51.636;4.948;2022-10-23T10:50:46;7.75;;;1.67;;
59189;SDS011;50749;51.636;4.948;2022-10-23T10:56:11;3.65;;;1.40;;
59189;SDS011;50749;51.636;4.948;2022-10-23T10:58:53;3.95;;;1.55;;
59189;SDS011;50749;51.636;4.948;2022-10-23T11:06:47;4.88;;;1.52;;
59189;SDS011;50749;51.636;4.948;2022-10-23T11:09:26;5.90;;;1.48;;
59189;SDS011;50749;51.636;4.948;2022-10-23T11:11:54;2.47;;;1.25;;
59189;SDS011;50749;51.636;4.948;2022-10-23T11:14:21;3.95;;;1.73;;
59189;SDS011;50749;51.636;4.948;2022-10-23T11:16:49;4.13;;;1.45;;
59189;SDS011;50749;51.636;4.948;2022-10-23T11:19:27;3.22;;;1.50;;
59189;SDS011;50749;51.636;4.948;2022-10-23T11:30:34;5.05;;;1.58;;
59189;SDS011;50749;51.636;4.948;2022-10-23T11:41:02;3.55;;;1.50;;
59189;SDS011;50749;51.636;4.948;2022-10-23T11:43:57;10.43;;;1.75;;
59189;SDS011;50749;51.636;4.948;2022-10-23T11:46:30;4.22;;;1.48;;
59189;SDS011;50749;51.636;4.948;2022-10-23T11:49:00;6.93;;;1.80;;
59189;SDS011;50749;51.636;4.948;2022-10-23T11:54:19;2.13;;;1.33;;
59189;SDS011;50749;51.636;4.948;2022-10-23T12:04:57;3.80;;;1.52;;
59189;SDS011;50749;51.636;4.948;2022-10-23T12:07:28;2.78;;;1.17;;
59189;SDS011;50749;51.636;4.948;2022-10-23T12:10:01;6.88;;;1.45;;
59189;SDS011;50749;51.636;4.948;2022-10-23T12:12:54;3.83;;;1.92;;
59189;SDS011;50749;51.636;4.948;2022-10-23T12:15:25;4.60;;;1.60;;
59189;SDS011;50749;51.636;4.948;2022-10-23T12:17:51;2.88;;;1.38;;
59189;SDS011;50749;51.636;4.948;2022-10-23T12:20:37;3.72;;;1.20;;
59189;SDS011;50749;51.636;4.948;2022-10-23T12:23:27;1.92;;;1.30;;
59189;SDS011;50749;51.636;4.948;2022-10-23T12:26:16;2.67;;;1.30;;
59189;SDS011;50749;51.636;4.948;2022-10-23T12:39:23;5.00;;;1.47;;
59189;SDS011;50749;51.636;4.948;2022-10-23T12:41:59;4.25;;;1.10;;
59189;SDS011;50749;51.636;4.948;2022-10-23T12:44:25;2.42;;;1.30;;
59189;SDS011;50749;51.636;4.948;2022-10-23T12:46:53;3.22;;;1.13;;
59189;SDS011;50749;51.636;4.948;2022-10-23T12:49:23;4.10;;;1.50;;
59189;SDS011;50749;51.636;4.948;2022-10-23T12:52:03;4.43;;;1.13;;
59189;SDS011;50749;51.636;4.948;2022-10-23T12:54:31;4.72;;;1.50;;
59189;SDS011;50749;51.636;4.948;2022-10-23T12:56:58;3.63;;;1.55;;
59189;SDS011;50749;51.636;4.948;2022-10-23T12:59:30;2.05;;;1.20;;
59189;SDS011;50749;51.636;4.948;2022-10-23T13:02:12;2.70;;;1.17;;
59189;SDS011;50749;51.636;4.948;2022-10-23T13:04:44;1.83;;;1.10;;
59189;SDS011;50749;51.636;4.948;2022-10-23T13:07:10;2.88;;;1.48;;
59189;SDS011;50749;51.636;4.948;2022-10-23T13:09:40;3.90;;;2.08;;
59189;SDS011;50749;51.636;4.948;2022-10-23T13:12:07;2.60;;;1.20;;
59189;SDS011;50749;51.636;4.948;2022-10-23T13:17:39;3.67;;;1.10;;
59189;SDS011;50749;51.636;4.948;2022-10-23T13:22:44;3.55;;;1.20;;
59189;SDS011;50749;51.636;4.948;2022-10-23T13:25:25;2.17;;;1.27;;
59189;SDS011;50749;51.636;4.948;2022-10-23T13:28:53;4.85;;;1.20;;
59189;SDS011;50749;51.636;4.948;2022-10-23T13:31:05;5.70;;;1.05;;
59189;SDS011;50749;51.636;4.948;2022-10-23T13:33:41;4.25;;;1.25;;
59189;SDS011;50749;51.636;4.948;2022-10-23T13:38:44;3.00;;;1.30;;
59189;SDS011;50749;51.636;4.948;2022-10-23T13:41:13;10.25;;;1.98;;
59189;SDS011;50749;51.636;4.948;2022-10-23T13:43:41;2.30;;;1.30;;
59189;SDS011;50749;51.636;4.948;2022-10-23T13:46:13;6.30;;;1.50;;
59189;SDS011;50749;51.636;4.948;2022-10-23T13:48:41;5.40;;;1.15;;
59189;SDS011;50749;51.636;4.948;2022-10-23T13:51:11;3.58;;;1.10;;
59189;SDS011;50749;51.636;4.948;2022-10-23T13:53:39;6.80;;;1.55;;
59189;SDS011;50749;51.636;4.948;2022-10-23T13:56:04;3.05;;;1.17;;
59189;SDS011;50749;51.636;4.948;2022-10-23T13:58:30;3.55;;;1.30;;
59189;SDS011;50749;51.636;4.948;2022-10-23T14:00:56;3.40;;;1.40;;
59189;SDS011;50749;51.636;4.948;2022-10-23T14:03:23;2.75;;;1.33;;
59189;SDS011;50749;51.636;4.948;2022-10-23T14:05:49;2.90;;;1.30;;
59189;SDS011;50749;51.636;4.948;2022-10-23T14:08:15;2.05;;;1.30;;
59189;SDS011;50749;51.636;4.948;2022-10-23T14:10:41;3.58;;;2.10;;
59189;SDS011;50749;51.636;4.948;2022-10-23T14:13:07;2.30;;;1.20;;
59189;SDS011;50749;51.636;4.948;2022-10-23T14:15:33;2.05;;;1.20;;
59189;SDS011;50749;51.636;4.948;2022-10-23T14:17:59;1.75;;;0.90;;
59189;SDS011;50749;51.636;4.948;2022-10-23T14:20:24;3.35;;;1.33;;
59189;SDS011;50749;51.636;4.948;2022-10-23T14:22:50;1.95;;;1.25;;
59189;SDS011;50749;51.636;4.948;2022-10-23T14:25:16;5.20;;;1.13;;
59189;SDS011;50749;51.636;4.948;2022-10-23T14:27:43;3.10;;;1.35;;
59189;SDS011;50749;51.636;4.948;2022-10-23T14:30:09;3.42;;;1.17;;
59189;SDS011;50749;51.636;4.948;2022-10-23T14:32:35;2.72;;;1.08;;
59189;SDS011;50749;51.636;4.948;2022-10-23T14:35:01;4.78;;;1.20;;
59189;SDS011;50749;51.636;4.948;2022-10-23T14:37:29;5.53;;;1.30;;
59189;SDS011;50749;51.636;4.948;2022-10-23T14:39:55;5.15;;;1.15;;
59189;SDS011;50749;51.636;4.948;2022-10-23T14:42:22;5.28;;;1.50;;
59189;SDS011;50749;51.636;4.948;2022-10-23T14:44:48;2.65;;;1.20;;
59189;SDS011;50749;51.636;4.948;2022-10-23T14:47:15;3.30;;;1.25;;
59189;SDS011;50749;51.636;4.948;2022-10-23T14:49:43;2.65;;;1.25;;
59189;SDS011;50749;51.636;4.948;2022-10-23T14:52:10;5.10;;;1.40;;
59189;SDS011;50749;51.636;4.948;2022-10-23T14:54:36;2.92;;;1.45;;
59189;SDS011;50749;51.636;4.948;2022-10-23T14:57:02;3.70;;;1.20;;
59189;SDS011;50749;51.636;4.948;2022-10-23T14:59:28;2.33;;;1.30;;
59189;SDS011;50749;51.636;4.948;2022-10-23T15:01:54;6.50;;;1.30;;
59189;SDS011;50749;51.636;4.948;2022-10-23T15:04:20;3.55;;;1.27;;
59189;SDS011;50749;51.636;4.948;2022-10-23T15:06:46;2.92;;;1.30;;
59189;SDS011;50749;51.636;4.948;2022-10-23T15:09:12;8.27;;;1.38;;
59189;SDS011;50749;51.636;4.948;2022-10-23T15:11:38;6.82;;;1.50;;
59189;SDS011;50749;51.636;4.948;2022-10-23T15:14:04;2.95;;;1.50;;
59189;SDS011;50749;51.636;4.948;2022-10-23T15:16:30;2.80;;;1.23;;
59189;SDS011;50749;51.636;4.948;2022-10-23T15:18:56;2.70;;;1.33;;
59189;SDS011;50749;51.636;4.948;2022-10-23T15:21:22;2.63;;;1.63;;
59189;SDS011;50749;51.636;4.948;2022-10-23T15:23:48;3.78;;;1.20;;
59189;SDS011;50749;51.636;4.948;2022-10-23T15:26:15;3.25;;;1.60;;
59189;SDS011;50749;51.636;4.948;2022-10-23T15:28:46;2.90;;;1.40;;
59189;SDS011;50749;51.636;4.948;2022-10-23T15:31:23;1.80;;;1.20;;
59189;SDS011;50749;51.636;4.948;2022-10-23T15:34:11;3.92;;;1.27;;
59189;SDS011;50749;51.636;4.948;2022-10-23T15:36:43;3.30;;;1.20;;
59189;SDS011;50749;51.636;4.948;2022-10-23T15:39:09;3.17;;;1.23;;
59189;SDS011;50749;51.636;4.948;2022-10-23T15:41:38;2.90;;;1.15;;
59189;SDS011;50749;51.636;4.948;2022-10-23T15:44:05;4.53;;;1.80;;
59189;SDS011;50749;51.636;4.948;2022-10-23T15:46:32;3.78;;;1.67;;
59189;SDS011;50749;51.636;4.948;2022-10-23T15:48:58;2.53;;;1.17;;
59189;SDS011;50749;51.636;4.948;2022-10-23T15:51:24;4.28;;;1.90;;
59189;SDS011;50749;51.636;4.948;2022-10-23T15:53:50;4.13;;;1.58;;
59189;SDS011;50749;51.636;4.948;2022-10-23T15:56:16;3.08;;;1.75;;
59189;SDS011;50749;51.636;4.948;2022-10-23T15:58:42;6.30;;;1.75;;
59189;SDS011;50749;51.636;4.948;2022-10-23T16:01:08;3.20;;;1.52;;
59189;SDS011;50749;51.636;4.948;2022-10-23T16:03:35;2.28;;;1.60;;
59189;SDS011;50749;51.636;4.948;2022-10-23T16:06:03;6.30;;;1.77;;
59189;SDS011;50749;51.636;4.948;2022-10-23T16:08:29;7.60;;;3.30;;
59189;SDS011;50749;51.636;4.948;2022-10-23T16:10:55;12.45;;;4.63;;
59189;SDS011;50749;51.636;4.948;2022-10-23T16:13:21;17.85;;;6.95;;
59189;SDS011;50749;51.636;4.948;2022-10-23T16:15:47;27.38;;;10.25;;
59189;SDS011;50749;51.636;4.948;2022-10-23T16:18:12;33.85;;;11.80;;
59189;SDS011;50749;51.636;4.948;2022-10-23T16:20:40;23.75;;;9.93;;
59189;SDS011;50749;51.636;4.948;2022-10-23T16:23:06;25.15;;;10.13;;
59189;SDS011;50749;51.636;4.948;2022-10-23T16:25:35;27.63;;;10.63;;
59189;SDS011;50749;51.636;4.948;2022-10-23T16:28:02;30.63;;;10.20;;
59189;SDS011;50749;51.636;4.948;2022-10-23T16:30:28;24.05;;;9.05;;
59189;SDS011;50749;51.636;4.948;2022-10-23T16:32:54;29.00;;;8.98;;
59189;SDS011;50749;51.636;4.948;2022-10-23T16:35:20;22.13;;;8.98;;
59189;SDS011;50749;51.636;4.948;2022-10-23T16:37:46;26.48;;;8.07;;
59189;SDS011;50749;51.636;4.948;2022-10-23T16:40:12;19.45;;;7.45;;
59189;SDS011;50749;51.636;4.948;2022-10-23T16:42:38;22.05;;;8.02;;
59189;SDS011;50749;51.636;4.948;2022-10-23T16:45:06;26.30;;;9.57;;
59189;SDS011;50749;51.636;4.948;2022-10-23T16:47:33;25.88;;;10.48;;
59189;SDS011;50749;51.636;4.948;2022-10-23T16:49:59;17.17;;;6.57;;
59189;SDS011;50749;51.636;4.948;2022-10-23T16:52:26;22.55;;;9.07;;
59189;SDS011;50749;51.636;4.948;2022-10-23T16:54:52;25.60;;;7.53;;
59189;SDS011;50749;51.636;4.948;2022-10-23T16:57:18;24.45;;;8.65;;
59189;SDS011;50749;51.636;4.948;2022-10-23T16:59:44;21.92;;;8.68;;
59189;SDS011;50749;51.636;4.948;2022-10-23T17:02:10;24.70;;;8.15;;
59189;SDS011;50749;51.636;4.948;2022-10-23T17:04:36;19.88;;;7.50;;
59189;SDS011;50749;51.636;4.948;2022-10-23T17:07:04;20.45;;;8.05;;
59189;SDS011;50749;51.636;4.948;2022-10-23T17:09:30;20.40;;;7.30;;